createdAt,value
2023-08-05T00:00:40.156Z,20.79
2023-08-05T00:05:41.651Z,21.09
2023-08-05T00:10:44.154Z,20.84
2023-08-05T00:15:45.703Z,20.78
2023-08-05T00:20:49.341Z,20.68
2023-08-05T00:25:50.836Z,21.08
2023-08-05T00:30:52.375Z,21.15
2023-08-05T00:35:53.877Z,21.27
2023-08-05T00:40:55.367Z,21.36
2023-08-05T00:45:56.906Z,21.23
2023-08-05T00:50:59.452Z,21.18
2023-08-05T00:56:00.975Z,21.31
2023-08-05T01:01:02.527Z,21.27
2023-08-05T01:06:05.567Z,21.39
2023-08-05T01:11:07.089Z,21.43
2023-08-05T01:16:08.702Z,21.45
2023-08-05T01:21:13.958Z,21.37
2023-08-05T01:26:15.468Z,21.33
2023-08-05T01:31:17.008Z,21.35
2023-08-05T01:36:24.673Z,21.21
2023-08-05T01:41:26.157Z,21.26
2023-08-05T01:46:27.669Z,21.02
2023-08-05T01:51:29.212Z,21.03
2023-08-05T01:56:30.746Z,21.43
2023-08-05T02:01:52.451Z,21.30
2023-08-05T02:06:54.025Z,21.20
2023-08-05T02:11:55.526Z,21.14
2023-08-05T02:16:57.152Z,21.24
2023-08-05T02:21:58.768Z,21.17
2023-08-05T02:27:00.263Z,21.14
2023-08-05T02:32:01.924Z,21.22
2023-08-05T02:37:03.458Z,21.07
2023-08-05T02:42:04.956Z,21.23
2023-08-05T02:47:06.648Z,21.31
2023-08-05T02:52:08.231Z,21.18
2023-08-05T02:57:09.739Z,21.26
2023-08-05T03:02:11.303Z,21.14
2023-08-05T03:07:12.822Z,21.35
2023-08-05T03:12:14.323Z,21.17
2023-08-05T03:17:15.890Z,21.38
2023-08-05T03:22:17.381Z,20.97
2023-08-05T03:27:18.879Z,21.11
2023-08-05T03:32:20.383Z,21.15
2023-08-05T03:37:21.894Z,20.97
2023-08-05T03:42:23.425Z,21.14
2023-08-05T03:47:24.979Z,21.27
2023-08-05T03:52:27.734Z,21.23
2023-08-05T03:57:29.264Z,21.21
2023-08-05T04:02:30.831Z,21.14
2023-08-05T04:07:32.454Z,21.33
2023-08-05T04:12:37.156Z,21.51
2023-08-05T04:17:38.959Z,21.48
2023-08-05T04:22:40.685Z,21.42
2023-08-05T04:27:42.198Z,21.56
2023-08-05T04:32:43.755Z,21.53
2023-08-05T04:37:45.299Z,21.58
2023-08-05T04:42:46.800Z,21.67
2023-08-05T04:47:48.498Z,21.62
2023-08-05T04:52:50.040Z,21.57
2023-08-05T04:57:55.289Z,21.57
2023-08-05T05:02:56.865Z,21.65
2023-08-05T05:07:58.469Z,21.61
2023-08-05T05:13:00.782Z,21.59
2023-08-05T05:18:02.407Z,21.73
2023-08-05T05:23:03.999Z,21.55
2023-08-05T05:28:05.529Z,21.61
2023-08-05T05:33:07.127Z,21.79
2023-08-05T05:38:08.665Z,21.88
2023-08-05T05:43:10.178Z,22.08
2023-08-05T05:48:11.677Z,22.21
2023-08-05T05:53:17.866Z,22.05
2023-08-05T05:58:19.365Z,22.30
2023-08-05T06:03:21.054Z,22.34
2023-08-05T06:08:22.785Z,22.38
2023-08-05T06:13:33.592Z,22.61
2023-08-05T06:18:35.118Z,22.68
2023-08-05T06:23:36.613Z,22.63
2023-08-05T06:28:38.121Z,22.72
2023-08-05T06:33:39.627Z,23.00
2023-08-05T06:38:41.146Z,23.14
2023-08-05T06:43:42.660Z,23.26
2023-08-05T06:48:44.161Z,23.39
2023-08-05T06:53:45.954Z,23.44
2023-08-05T06:58:47.946Z,23.48
2023-08-05T07:03:50.055Z,23.50
2023-08-05T07:08:51.559Z,23.49
2023-08-05T07:13:53.059Z,22.13
2023-08-05T07:18:54.654Z,23.57
2023-08-05T07:23:56.153Z,23.98
2023-08-05T07:28:57.645Z,24.35
2023-08-05T07:33:59.231Z,24.57
2023-08-05T07:39:03.518Z,24.48
2023-08-05T07:44:05.666Z,24.57
2023-08-05T07:49:08.263Z,24.72
2023-08-05T07:54:09.784Z,24.96
2023-08-05T07:59:14.010Z,24.94
2023-08-05T08:04:16.174Z,25.01
2023-08-05T08:09:18.377Z,25.15
2023-08-05T08:14:19.902Z,25.29
2023-08-05T08:19:22.317Z,25.33
2023-08-05T08:24:24.519Z,24.78
2023-08-05T08:29:26.120Z,24.61
2023-08-05T08:34:27.602Z,24.51
2023-08-05T08:39:29.184Z,24.38
2023-08-05T08:44:30.767Z,23.95
2023-08-05T08:49:32.294Z,24.05
2023-08-05T08:54:33.793Z,24.07
2023-08-05T08:59:35.300Z,24.27
2023-08-05T09:04:36.795Z,24.33
2023-08-05T09:09:38.318Z,24.33
2023-08-05T09:14:39.857Z,24.53
2023-08-05T09:19:42.031Z,24.60
2023-08-05T09:24:43.539Z,24.81
2023-08-05T09:29:45.047Z,24.98
2023-08-05T09:34:50.853Z,24.80
2023-08-05T09:39:53.042Z,25.12
2023-08-05T09:44:58.473Z,24.34
2023-08-05T09:50:01.069Z,24.92
2023-08-05T09:55:08.576Z,24.90
2023-08-05T10:00:15.103Z,25.03
2023-08-05T10:05:16.743Z,25.27
2023-08-05T10:10:18.275Z,25.29
2023-08-05T10:15:32.157Z,25.24
2023-08-05T10:20:39.322Z,25.44
2023-08-05T10:25:48.082Z,25.60
2023-08-05T10:30:49.599Z,25.79
2023-08-05T10:35:51.278Z,24.50
2023-08-05T10:41:04.166Z,25.43
2023-08-05T10:46:08.663Z,25.65
2023-08-05T10:51:12.908Z,25.86
2023-08-05T10:56:14.819Z,25.90
2023-08-05T11:01:16.429Z,25.73
2023-08-05T11:06:24.097Z,26.12
2023-08-05T11:11:25.453Z,26.34
2023-08-05T11:16:27.003Z,26.36
2023-08-05T11:21:28.385Z,26.83
2023-08-05T11:26:29.913Z,27.16
2023-08-05T11:31:31.506Z,27.11
2023-08-05T11:36:32.888Z,26.97
2023-08-05T11:41:34.389Z,26.82
2023-08-05T11:46:44.480Z,27.24
2023-08-05T11:51:51.787Z,27.33
2023-08-05T11:56:53.647Z,27.73
2023-08-05T12:01:55.027Z,27.28
2023-08-05T12:06:56.520Z,27.52
2023-08-05T12:11:58.278Z,27.36
2023-08-05T12:17:00.732Z,27.85
2023-08-05T12:22:02.434Z,27.85
2023-08-05T12:27:04.058Z,27.51
2023-08-05T12:32:06.063Z,27.68
2023-08-05T12:37:07.559Z,27.61
2023-08-05T12:42:10.193Z,27.46
2023-08-05T12:47:11.686Z,27.26
2023-08-05T12:52:13.135Z,27.48
2023-08-05T12:57:14.667Z,27.23
2023-08-05T13:02:17.825Z,27.78
2023-08-05T13:07:19.949Z,27.42
2023-08-05T13:12:21.614Z,27.63
2023-08-05T13:17:23.180Z,27.15
2023-08-05T13:22:24.718Z,27.42
2023-08-05T13:27:29.187Z,26.59
2023-08-05T13:32:30.750Z,27.22
2023-08-05T13:37:32.290Z,27.26
2023-08-05T13:42:33.815Z,27.48
2023-08-05T13:47:35.223Z,27.64
2023-08-05T13:52:36.785Z,27.65
2023-08-05T13:57:38.151Z,26.66
2023-08-05T14:02:40.550Z,26.65
2023-08-05T14:07:42.120Z,26.55
2023-08-05T14:12:43.558Z,27.03
2023-08-05T14:17:45.153Z,27.24
2023-08-05T14:22:47.237Z,27.16
2023-08-05T14:27:49.774Z,25.90
2023-08-05T14:32:52.397Z,26.27
2023-08-05T14:37:54.078Z,26.63
2023-08-05T14:42:55.583Z,26.92
2023-08-05T14:47:57.003Z,27.21
2023-08-05T14:52:58.525Z,26.55
2023-08-05T14:57:59.924Z,26.81
2023-08-05T15:03:01.663Z,26.87
2023-08-05T15:08:03.304Z,27.14
2023-08-05T15:13:04.670Z,26.73
2023-08-05T15:18:06.246Z,26.63
2023-08-05T15:23:12.743Z,26.10
2023-08-05T15:28:20.041Z,26.36
2023-08-05T15:33:23.473Z,26.31
2023-08-05T15:38:24.978Z,26.40
2023-08-05T15:43:26.489Z,26.43
2023-08-05T15:48:28.003Z,26.29
2023-08-05T15:53:30.138Z,26.33
2023-08-05T15:58:31.746Z,26.11
2023-08-05T16:03:33.487Z,26.32
2023-08-05T16:08:35.292Z,26.30
2023-08-05T16:13:36.878Z,26.34
2023-08-05T16:18:38.814Z,26.21
2023-08-05T16:23:40.482Z,26.30
2023-08-05T16:28:42.207Z,26.26
2023-08-05T16:33:43.729Z,26.17
2023-08-05T16:38:45.386Z,26.06
2023-08-05T16:43:46.966Z,25.86
2023-08-05T16:48:48.505Z,26.02
2023-08-05T16:53:50.018Z,26.01
2023-08-05T16:58:52.498Z,25.81
2023-08-05T17:03:54.068Z,25.90
2023-08-05T17:08:55.560Z,25.53
2023-08-05T17:13:57.090Z,25.66
2023-08-05T17:18:58.619Z,25.58
2023-08-05T17:24:00.195Z,25.53
2023-08-05T17:29:01.728Z,25.46
2023-08-05T17:34:03.338Z,25.44
2023-08-05T17:39:05.204Z,25.40
2023-08-05T17:44:06.755Z,25.33
2023-08-05T17:49:08.253Z,25.29
2023-08-05T17:54:09.831Z,25.26
2023-08-05T17:59:11.573Z,24.88
2023-08-05T18:04:17.436Z,25.08
2023-08-05T18:09:20.205Z,24.50
2023-08-05T18:14:21.697Z,24.86
2023-08-05T18:19:23.240Z,24.87
2023-08-05T18:24:24.745Z,24.83
2023-08-05T18:29:26.242Z,24.93
2023-08-05T18:34:27.736Z,24.54
2023-08-05T18:39:32.793Z,24.65
2023-08-05T18:44:34.926Z,24.50
2023-08-05T18:49:37.503Z,24.51
2023-08-05T18:54:39.041Z,24.55
2023-08-05T18:59:40.556Z,24.63
2023-08-05T19:04:45.196Z,24.67
2023-08-05T19:09:46.714Z,24.20
2023-08-05T19:14:48.220Z,23.39
2023-08-05T19:19:49.738Z,22.75
2023-08-05T19:24:51.261Z,22.02
2023-08-05T19:29:53.866Z,20.47
2023-08-05T19:34:55.421Z,20.87
2023-08-05T19:39:56.960Z,20.69
2023-08-05T19:44:58.520Z,20.60
2023-08-05T19:50:00.057Z,20.39
2023-08-05T19:55:01.573Z,20.92
2023-08-05T20:00:03.792Z,20.68
2023-08-05T20:05:05.656Z,20.51
2023-08-05T20:10:08.687Z,20.94
2023-08-05T20:15:10.364Z,21.03
2023-08-05T20:20:12.237Z,21.35
2023-08-05T20:25:13.812Z,21.45
2023-08-05T20:30:18.172Z,21.64
2023-08-05T20:35:19.994Z,21.77
2023-08-05T20:40:21.600Z,21.83
2023-08-05T20:45:23.130Z,21.86
2023-08-05T20:50:24.624Z,21.82
2023-08-05T20:55:26.131Z,21.89
2023-08-05T21:00:28.138Z,21.93
2023-08-05T21:05:29.642Z,21.94
2023-08-05T21:10:31.177Z,21.98
2023-08-05T21:15:32.696Z,21.90
2023-08-05T21:20:34.225Z,21.88
2023-08-05T21:25:35.735Z,21.88
2023-08-05T21:30:37.276Z,21.80
2023-08-05T21:35:40.370Z,21.72
2023-08-05T21:40:48.343Z,21.75
2023-08-05T21:45:54.077Z,21.65
2023-08-05T21:50:55.637Z,21.72
2023-08-05T21:55:57.552Z,21.70
2023-08-05T22:00:59.053Z,21.61
2023-08-05T22:06:05.756Z,21.60
2023-08-05T22:11:08.273Z,21.64
2023-08-05T22:16:10.548Z,21.52
2023-08-05T22:21:12.080Z,21.68
2023-08-05T22:26:13.584Z,21.54
2023-08-05T22:31:15.095Z,21.49
2023-08-05T22:36:17.880Z,21.51
2023-08-05T22:41:19.431Z,21.61
2023-08-05T22:46:22.017Z,21.63
2023-08-05T22:51:23.617Z,21.65
2023-08-05T22:56:25.189Z,21.31
2023-08-05T23:01:26.820Z,21.31
2023-08-05T23:06:28.363Z,21.41
2023-08-05T23:11:30.046Z,21.53
2023-08-05T23:16:31.537Z,21.50
2023-08-05T23:21:33.055Z,21.51
2023-08-05T23:26:34.559Z,21.54
2023-08-05T23:31:36.173Z,21.60
2023-08-05T23:36:37.677Z,21.49
2023-08-05T23:41:39.170Z,21.42
2023-08-05T23:46:40.792Z,21.46
2023-08-05T23:51:42.341Z,21.34
2023-08-05T23:56:43.847Z,21.56
